Time;durP1;ratioP1;P1;durP2;ratioP2;P2;SDS_P1;SDS_P2;PMS_P1;PMS_P2;Temp;Humidity;BMP_temperature;BMP_pressure;BME280_temperature;BME280_humidity;BME280_pressure;Samples;Min_cycle;Max_cycle;Signal;HPM_P1;HPM_P2
2021/11/11 00:00:51;;;;;;;18.83;12.30;;;6.00;99.90;;;;;;5090883;28;20042;-85
2021/11/11 00:03:19;;;;;;;22.20;12.23;;;6.00;99.90;;;;;;5108059;28;20491;-84
2021/11/11 00:05:45;;;;;;;22.00;13.57;;;6.00;99.90;;;;;;5108091;28;20032;-83
2021/11/11 00:08:11;;;;;;;22.55;14.05;;;6.00;99.90;;;;;;5107968;28;20019;-84
2021/11/11 00:10:37;;;;;;;22.00;13.10;;;6.00;99.90;;;;;;5107989;28;20114;-84
2021/11/11 00:13:04;;;;;;;20.58;12.95;;;6.00;99.90;;;;;;5107954;28;20027;-85
2021/11/11 00:15:30;;;;;;;19.73;13.07;;;5.90;99.90;;;;;;5108254;28;20111;-84
2021/11/11 00:17:56;;;;;;;23.05;12.95;;;5.90;99.90;;;;;;5091386;28;20567;-84
2021/11/11 00:20:24;;;;;;;21.08;13.25;;;5.90;99.90;;;;;;5110241;28;20028;-85
2021/11/11 00:22:51;;;;;;;20.15;13.13;;;5.90;99.90;;;;;;5113476;27;20513;-84
2021/11/11 00:25:21;;;;;;;22.73;13.40;;;5.80;99.90;;;;;;5112358;28;20028;-84
2021/11/11 00:27:48;;;;;;;21.60;12.38;;;5.80;99.90;;;;;;5112368;28;20436;-84
2021/11/11 00:30:17;;;;;;;17.20;12.40;;;5.70;99.90;;;;;;5110960;28;20044;-85
2021/11/11 00:32:44;;;;;;;20.50;12.85;;;5.70;99.90;;;;;;5111206;28;20023;-85
2021/11/11 00:35:18;;;;;;;19.73;12.02;;;5.70;99.90;;;;;;5111510;28;20023;-83
2021/11/11 00:37:45;;;;;;;20.10;13.07;;;5.60;99.90;;;;;;5111798;28;20042;-86
2021/11/11 00:40:12;;;;;;;16.98;11.70;;;5.60;99.90;;;;;;5105575;28;20085;-85
2021/11/11 00:42:38;;;;;;;18.25;12.35;;;5.60;99.90;;;;;;5111269;28;20039;-85
2021/11/11 00:45:05;;;;;;;19.83;12.63;;;5.50;99.90;;;;;;5110787;28;20073;-85
2021/11/11 00:47:32;;;;;;;19.88;13.02;;;5.50;99.90;;;;;;5111053;28;20031;-84
2021/11/11 00:49:58;;;;;;;19.35;12.35;;;5.40;99.90;;;;;;5110927;28;20023;-85
2021/11/11 00:52:24;;;;;;;17.40;11.57;;;5.40;99.90;;;;;;5110524;28;20501;-84
2021/11/11 00:54:50;;;;;;;19.45;12.70;;;5.40;99.90;;;;;;5110959;28;20026;-85
2021/11/11 00:57:16;;;;;;;18.70;11.65;;;5.40;99.90;;;;;;5110705;28;20024;-85
2021/11/11 00:59:42;;;;;;;18.65;11.52;;;5.40;99.90;;;;;;5110745;28;20085;-85
2021/11/11 01:02:10;;;;;;;18.42;11.25;;;5.40;99.90;;;;;;5110081;28;20023;-84
2021/11/11 01:04:37;;;;;;;20.10;11.95;;;5.40;99.90;;;;;;5111254;28;20032;-86
2021/11/11 01:07:05;;;;;;;20.13;12.95;;;5.40;99.90;;;;;;5093771;28;20047;-85
2021/11/11 01:09:32;;;;;;;19.70;12.30;;;5.50;99.90;;;;;;5110953;28;20046;-84
2021/11/11 01:11:58;;;;;;;18.83;12.32;;;5.50;99.90;;;;;;5114397;28;20020;-84
2021/11/11 01:14:26;;;;;;;19.17;12.48;;;5.60;99.90;;;;;;5115054;28;20043;-85
2021/11/11 01:16:53;;;;;;;18.38;12.10;;;5.60;99.90;;;;;;5096805;28;20111;-84
2021/11/11 01:19:21;;;;;;;16.92;11.80;;;5.60;99.90;;;;;;5116592;28;20040;-84
2021/11/11 01:21:47;;;;;;;17.75;11.60;;;5.60;99.90;;;;;;5115739;28;20040;-85
2021/11/11 01:24:13;;;;;;;21.25;13.00;;;5.70;99.90;;;;;;5115461;28;20008;-85
2021/11/11 01:26:39;;;;;;;18.98;12.30;;;5.70;99.90;;;;;;5115635;28;20417;-85
2021/11/11 01:29:05;;;;;;;21.70;12.38;;;5.70;99.90;;;;;;5115586;28;20076;-86
2021/11/11 01:31:31;;;;;;;17.55;11.80;;;5.70;99.90;;;;;;5115391;28;20114;-85
2021/11/11 01:33:57;;;;;;;22.48;13.23;;;5.80;99.90;;;;;;5115482;28;20023;-85
2021/11/11 01:36:23;;;;;;;20.02;13.43;;;5.80;99.90;;;;;;5115475;28;20038;-85
2021/11/11 01:38:49;;;;;;;21.13;13.45;;;5.90;99.90;;;;;;5114800;28;20046;-85
2021/11/11 01:41:15;;;;;;;20.58;12.60;;;5.90;99.90;;;;;;5115013;28;20035;-85
2021/11/11 01:43:41;;;;;;;20.85;13.15;;;6.00;99.90;;;;;;5114930;28;20130;-85
2021/11/11 01:46:07;;;;;;;20.90;12.82;;;6.10;99.90;;;;;;5115360;28;20128;-85
2021/11/11 01:48:33;;;;;;;21.42;13.02;;;6.10;99.90;;;;;;5115112;28;20036;-85
2021/11/11 01:50:59;;;;;;;19.42;12.85;;;6.10;99.90;;;;;;5116234;28;20028;-85
2021/11/11 01:53:25;;;;;;;20.15;12.88;;;6.20;99.90;;;;;;5115233;28;20359;-84
2021/11/11 01:55:53;;;;;;;22.08;13.38;;;6.20;99.90;;;;;;5115157;28;20028;-85
2021/11/11 01:58:19;;;;;;;20.67;12.57;;;6.30;99.90;;;;;;5115002;28;20046;-85
2021/11/11 02:00:49;;;;;;;20.15;12.68;;;6.30;99.90;;;;;;5113744;28;20110;-85
2021/11/11 02:03:16;;;;;;;21.27;12.98;;;6.30;99.90;;;;;;5113947;28;20459;-85
2021/11/11 02:05:43;;;;;;;22.63;13.93;;;6.30;99.90;;;;;;5113631;28;20076;-84
2021/11/11 02:08:10;;;;;;;23.38;14.98;;;6.40;99.90;;;;;;5113322;28;20020;-85
2021/11/11 02:10:37;;;;;;;20.98;13.80;;;6.40;99.90;;;;;;5109172;28;20031;-85
2021/11/11 02:13:05;;;;;;;24.33;15.52;;;6.40;99.90;;;;;;5113882;28;20098;-85
2021/11/11 02:15:32;;;;;;;25.63;16.17;;;6.40;99.90;;;;;;5113945;28;20027;-85
2021/11/11 02:17:58;;;;;;;25.85;15.20;;;6.40;99.90;;;;;;5113536;28;20069;-85
2021/11/11 02:20:27;;;;;;;24.98;16.42;;;6.40;99.90;;;;;;5113781;28;20035;-85
2021/11/11 02:22:54;;;;;;;25.92;16.60;;;6.40;99.90;;;;;;5115418;28;20043;-85
2021/11/11 02:25:23;;;;;;;27.55;17.27;;;6.40;99.90;;;;;;5113868;28;20015;-86
2021/11/11 02:27:56;;;;;;;27.90;17.38;;;6.40;99.90;;;;;;5115024;28;20023;-86
2021/11/11 02:30:23;;;;;;;;;;;6.40;99.90;;;;;;5109839;28;20027;-84
2021/11/11 02:32:49;;;;;;;22.95;14.30;;;6.40;99.90;;;;;;5113424;28;19911;-85
2021/11/11 02:35:17;;;;;;;26.10;15.25;;;6.50;99.90;;;;;;5114956;28;20030;-85
2021/11/11 02:37:44;;;;;;;24.08;14.68;;;6.40;99.90;;;;;;5114377;28;20145;-85
2021/11/11 02:40:18;;;;;;;24.45;14.13;;;6.40;99.90;;;;;;5113154;28;20039;-86
2021/11/11 02:42:46;;;;;;;22.48;14.73;;;6.50;99.90;;;;;;5114000;28;20053;-85
2021/11/11 02:45:16;;;;;;;23.52;14.57;;;6.50;99.90;;;;;;5112582;28;20056;-85
2021/11/11 02:47:44;;;;;;;24.33;15.55;;;6.50;99.90;;;;;;5112486;28;20489;-85
2021/11/11 02:50:11;;;;;;;27.63;15.93;;;6.60;99.90;;;;;;5113760;28;20110;-84
2021/11/11 02:52:37;;;;;;;24.52;13.68;;;6.60;99.90;;;;;;5112436;28;20028;-85
2021/11/11 02:55:06;;;;;;;28.10;15.95;;;6.60;99.90;;;;;;5112660;28;20023;-85
2021/11/11 02:57:35;;;;;;;27.55;16.77;;;6.60;99.90;;;;;;5112459;28;20043;-84
2021/11/11 03:00:10;;;;;;;26.63;16.83;;;6.60;99.90;;;;;;5112440;28;20028;-85
2021/11/11 03:02:38;;;;;;;25.08;15.88;;;6.60;99.90;;;;;;5092780;28;20023;-86
2021/11/11 03:05:06;;;;;;;27.08;17.52;;;6.50;99.90;;;;;;5112460;28;20015;-85
2021/11/11 03:07:32;;;;;;;34.03;19.85;;;6.50;99.90;;;;;;5113176;28;20045;-85
2021/11/11 03:09:59;;;;;;;32.33;19.67;;;6.50;99.90;;;;;;5112638;28;20027;-85
2021/11/11 03:12:25;;;;;;;36.03;21.90;;;6.50;99.90;;;;;;5113725;28;20019;-85
2021/11/11 03:14:53;;;;;;;35.45;22.10;;;6.40;99.90;;;;;;5113753;28;20015;-86
2021/11/11 03:17:19;;;;;;;30.63;19.42;;;6.30;99.90;;;;;;5113511;28;20115;-87
2021/11/11 03:19:46;;;;;;;26.70;17.90;;;6.20;99.90;;;;;;5114402;28;20091;-87
2021/11/11 03:22:21;;;;;;;29.40;18.35;;;6.20;99.90;;;;;;5113037;28;20060;-87
2021/11/11 03:24:52;;;;;;;26.52;18.15;;;6.10;99.90;;;;;;5113498;28;20020;-86
2021/11/11 03:27:21;;;;;;;24.58;16.33;;;6.10;99.90;;;;;;5114325;28;20079;-86
2021/11/11 03:29:49;;;;;;;24.85;15.80;;;6.20;99.90;;;;;;5113447;28;20527;-83
2021/11/11 03:32:15;;;;;;;25.17;15.80;;;6.20;99.90;;;;;;5113071;28;20149;-84
2021/11/11 03:34:42;;;;;;;25.70;15.48;;;6.30;99.90;;;;;;5114216;28;20481;-83
2021/11/11 03:37:09;;;;;;;25.73;15.88;;;6.30;99.90;;;;;;5112810;28;20023;-84
2021/11/11 03:39:35;;;;;;;23.65;15.15;;;6.30;99.90;;;;;;5113152;28;20492;-83
2021/11/11 03:42:02;;;;;;;24.95;15.93;;;6.30;99.90;;;;;;5112996;28;20023;-84
2021/11/11 03:44:28;;;;;;;26.00;16.27;;;6.30;99.90;;;;;;5112446;28;20490;-83
2021/11/11 03:46:56;;;;;;;25.40;16.80;;;6.30;99.90;;;;;;5112680;28;20022;-84
2021/11/11 03:49:23;;;;;;;28.67;17.23;;;6.30;99.90;;;;;;5114152;28;20028;-83
2021/11/11 03:51:50;;;;;;;25.48;17.20;;;6.20;99.90;;;;;;5112892;28;20027;-85
2021/11/11 03:54:19;;;;;;;24.48;16.17;;;6.20;99.90;;;;;;5095266;28;20431;-85
2021/11/11 03:56:47;;;;;;;25.42;15.68;;;6.20;99.90;;;;;;5112785;28;20052;-85
2021/11/11 03:59:16;;;;;;;23.95;15.43;;;6.20;99.90;;;;;;5112775;28;20028;-85
2021/11/11 04:01:42;;;;;;;28.05;16.27;;;6.20;99.90;;;;;;5095703;28;20070;-85
2021/11/11 04:04:08;;;;;;;24.60;15.80;;;6.20;99.90;;;;;;5112673;28;20072;-84
2021/11/11 04:06:40;;;;;;;27.42;16.83;;;6.20;99.90;;;;;;5112848;28;20028;-85
2021/11/11 04:09:07;;;;;;;24.98;16.33;;;6.20;99.90;;;;;;5110633;28;20084;-85
2021/11/11 04:11:39;;;;;;;24.67;16.50;;;6.30;99.90;;;;;;5096338;28;20083;-85
2021/11/11 04:14:05;;;;;;;25.92;15.45;;;6.30;99.90;;;;;;5112765;28;20046;-85
2021/11/11 04:16:33;;;;;;;23.52;15.45;;;6.30;99.90;;;;;;5112793;28;20020;-85
2021/11/11 04:19:00;;;;;;;24.08;15.55;;;6.40;99.90;;;;;;5112653;28;20028;-85
2021/11/11 04:21:26;;;;;;;23.83;15.63;;;6.40;99.90;;;;;;5113520;28;20111;-84
2021/11/11 04:23:53;;;;;;;24.85;15.35;;;6.40;99.90;;;;;;5112225;28;20495;-85
2021/11/11 04:31:53;;;;;;;28.00;15.95;;;6.50;99.90;;;;;;5100871;28;20160;-85
2021/11/11 04:34:20;;;;;;;24.70;15.65;;;6.60;99.90;;;;;;5113837;28;20012;-84
2021/11/11 04:39:35;;;;;;;22.65;14.93;;;6.60;99.90;;;;;;5113458;28;20035;-85
2021/11/11 05:03:33;;;;;;;24.27;16.23;;;6.80;99.90;;;;;;5113076;28;20020;-85
2021/11/11 05:05:59;;;;;;;25.83;15.75;;;6.90;99.90;;;;;;5113652;28;20553;-85
2021/11/11 05:08:25;;;;;;;26.23;16.35;;;6.90;99.90;;;;;;5116995;28;20016;-84
2021/11/11 05:10:52;;;;;;;26.05;16.25;;;6.90;99.90;;;;;;5116923;28;20043;-84
2021/11/11 05:13:19;;;;;;;27.48;17.83;;;6.90;99.90;;;;;;5115702;28;20030;-85
2021/11/11 05:15:45;;;;;;;33.30;19.48;;;6.90;99.90;;;;;;5115765;28;20028;-85
2021/11/11 05:18:11;;;;;;;31.48;17.83;;;6.90;99.90;;;;;;5115718;28;20026;-85
2021/11/11 05:20:37;;;;;;;25.85;17.42;;;6.80;99.90;;;;;;5098414;28;20046;-85
2021/11/11 05:23:03;;;;;;;29.88;18.55;;;6.80;99.90;;;;;;5115619;28;20388;-84
2021/11/11 05:25:29;;;;;;;27.77;16.90;;;6.80;99.90;;;;;;5115571;28;20583;-85
2021/11/11 05:27:55;;;;;;;28.45;17.33;;;6.90;99.90;;;;;;5115646;28;20130;-85
2021/11/11 05:30:23;;;;;;;27.55;16.67;;;6.90;99.90;;;;;;5115582;28;20026;-85
2021/11/11 05:32:50;;;;;;;27.42;15.65;;;6.90;99.90;;;;;;5115379;28;20047;-85
2021/11/11 05:35:16;;;;;;;26.77;16.23;;;6.90;99.90;;;;;;5115475;28;20031;-85
2021/11/11 05:37:44;;;;;;;24.50;16.45;;;6.90;99.90;;;;;;5115544;28;20020;-84
2021/11/11 05:40:11;;;;;;;28.55;15.18;;;6.90;99.90;;;;;;5115203;28;20043;-85
2021/11/11 05:42:37;;;;;;;27.65;17.65;;;7.00;99.90;;;;;;5098105;28;20024;-85
2021/11/11 05:45:06;;;;;;;30.20;19.42;;;6.90;99.90;;;;;;5116450;28;20455;-85
2021/11/11 05:47:31;;;;;;;29.73;19.60;;;6.90;99.90;;;;;;5097893;28;20043;-85
2021/11/11 05:49:57;;;;;;;26.80;17.15;;;6.90;99.90;;;;;;5098146;28;20028;-85
2021/11/11 05:52:23;;;;;;;28.60;17.70;;;6.90;99.90;;;;;;5115049;28;20024;-85
2021/11/11 05:54:49;;;;;;;24.02;16.70;;;6.90;99.90;;;;;;5114891;28;20035;-85
2021/11/11 05:57:18;;;;;;;26.52;17.42;;;6.90;99.90;;;;;;5114831;28;20028;-85
2021/11/11 05:59:43;;;;;;;28.40;18.33;;;6.90;99.90;;;;;;5112533;28;20036;-85
2021/11/11 06:02:11;;;;;;;29.25;17.88;;;6.90;99.90;;;;;;5112394;28;20034;-84
2021/11/11 06:04:38;;;;;;;25.02;16.75;;;7.00;99.90;;;;;;5112378;28;20192;-85
2021/11/11 06:07:04;;;;;;;32.55;18.65;;;7.00;99.90;;;;;;5112632;28;20115;-85
2021/11/11 06:09:31;;;;;;;27.83;17.88;;;7.00;99.90;;;;;;5096112;28;20386;-85
2021/11/11 06:11:57;;;;;;;26.70;17.75;;;7.00;99.90;;;;;;5112659;28;20185;-86
2021/11/11 06:14:23;;;;;;;25.77;16.98;;;7.00;99.90;;;;;;5112478;28;20099;-85
2021/11/11 06:16:51;;;;;;;24.67;16.80;;;7.00;99.90;;;;;;5112939;28;20171;-85
2021/11/11 06:19:23;;;;;;;24.80;16.27;;;7.00;99.90;;;;;;5115524;28;20020;-85
2021/11/11 06:21:53;;;;;;;26.25;16.60;;;7.00;99.90;;;;;;5114335;28;20035;-85
2021/11/11 06:24:20;;;;;;;29.52;17.60;;;7.10;99.90;;;;;;5097878;28;20085;-85
2021/11/11 06:26:46;;;;;;;26.40;17.20;;;7.10;99.90;;;;;;5114354;28;20016;-85
2021/11/11 06:29:12;;;;;;;26.75;18.10;;;7.00;99.90;;;;;;5114541;28;20501;-85
2021/11/11 06:31:40;;;;;;;31.02;19.08;;;7.10;99.90;;;;;;5113695;28;20062;-85
2021/11/11 06:34:08;;;;;;;29.90;18.73;;;7.10;99.90;;;;;;5114102;28;20020;-85
2021/11/11 06:36:38;;;;;;;31.73;20.05;;;7.10;99.90;;;;;;5114178;28;20382;-85
2021/11/11 06:39:05;;;;;;;29.77;19.38;;;7.10;99.90;;;;;;5114488;28;20102;-85
2021/11/11 06:41:30;;;;;;;29.63;18.73;;;7.10;99.90;;;;;;5113619;28;20035;-86
2021/11/11 06:43:56;;;;;;;28.50;18.20;;;7.10;99.90;;;;;;5113710;28;20126;-86
2021/11/11 06:46:23;;;;;;;29.23;18.70;;;7.10;99.90;;;;;;5114157;28;20463;-86
2021/11/11 06:48:52;;;;;;;29.10;19.00;;;7.10;99.90;;;;;;5113759;28;20016;-86
2021/11/11 06:51:21;;;;;;;32.55;20.98;;;7.10;99.90;;;;;;5114023;28;20032;-85
2021/11/11 06:53:47;;;;;;;31.50;19.13;;;7.10;99.90;;;;;;5096783;28;20131;-85
2021/11/11 06:56:13;;;;;;;31.05;19.73;;;7.10;99.90;;;;;;5113891;28;20035;-85
2021/11/11 06:58:39;;;;;;;30.20;19.42;;;7.00;99.90;;;;;;5113575;28;20015;-85
2021/11/11 07:01:10;;;;;;;28.55;17.73;;;7.00;99.90;;;;;;5096951;28;20044;-85
2021/11/11 07:03:38;;;;;;;26.60;17.75;;;7.10;99.90;;;;;;5096691;28;20027;-85
2021/11/11 07:06:05;;;;;;;28.80;18.73;;;7.10;99.90;;;;;;5113351;28;20478;-85
2021/11/11 07:08:31;;;;;;;29.17;18.73;;;7.10;99.90;;;;;;5096541;28;20032;-85
2021/11/11 07:10:59;;;;;;;29.70;19.13;;;7.10;99.90;;;;;;5113094;28;20054;-85
2021/11/11 07:13:26;;;;;;;29.13;18.60;;;7.10;99.90;;;;;;5114406;28;20034;-85
2021/11/11 07:15:52;;;;;;;31.00;20.17;;;7.10;99.90;;;;;;5113319;28;20106;-86
2021/11/11 07:18:21;;;;;;;29.40;18.60;;;7.10;99.90;;;;;;5114950;28;20419;-85
2021/11/11 07:20:49;;;;;;;34.38;20.17;;;7.10;99.90;;;;;;5096721;28;20053;-86
2021/11/11 07:23:20;;;;;;;37.85;22.05;;;7.10;99.90;;;;;;5113464;28;20053;-85
2021/11/11 07:25:49;;;;;;;41.00;25.88;;;7.10;99.90;;;;;;5112736;28;20428;-84
2021/11/11 07:28:15;;;;;;;47.00;30.13;;;7.10;99.90;;;;;;5113201;28;20039;-85
2021/11/11 07:30:42;;;;;;;48.25;29.38;;;7.10;99.90;;;;;;5095679;28;20038;-85
2021/11/11 07:33:08;;;;;;;35.60;25.20;;;7.00;99.90;;;;;;5096051;28;20042;-85
2021/11/11 07:35:41;;;;;;;38.10;23.58;;;7.00;99.90;;;;;;5114397;28;20127;-85
2021/11/11 07:38:07;;;;;;;34.42;21.52;;;7.10;99.90;;;;;;5096422;28;20101;-85
2021/11/11 07:40:36;;;;;;;34.90;22.50;;;7.10;99.90;;;;;;5095837;28;20027;-85
2021/11/11 07:43:05;;;;;;;37.00;22.58;;;7.10;99.90;;;;;;5113072;28;20106;-85
2021/11/11 07:45:36;;;;;;;40.40;24.45;;;7.20;99.90;;;;;;5113007;28;20395;-85
2021/11/11 07:48:03;;;;;;;41.92;23.88;;;7.20;99.90;;;;;;5114460;28;20015;-85
2021/11/11 07:50:35;;;;;;;42.05;27.58;;;7.20;99.90;;;;;;5112915;28;20032;-85
2021/11/11 07:53:09;;;;;;;39.55;25.23;;;7.20;99.90;;;;;;5113126;28;20020;-86
2021/11/11 07:55:36;;;;;;;36.05;22.85;;;7.20;99.90;;;;;;5096846;28;20123;-86
2021/11/11 07:58:02;;;;;;;36.05;22.50;;;7.30;99.90;;;;;;5095955;28;20027;-85
2021/11/11 08:00:31;;;;;;;33.40;21.05;;;7.40;99.90;;;;;;5112713;28;20041;-85
2021/11/11 08:02:57;;;;;;;31.35;21.42;;;7.40;99.90;;;;;;5112652;28;20387;-85
2021/11/11 08:05:24;;;;;;;30.33;20.10;;;7.40;99.90;;;;;;5112379;28;20526;-85
2021/11/11 08:07:51;;;;;;;33.10;21.33;;;7.50;99.90;;;;;;5095922;28;20030;-86
2021/11/11 08:10:20;;;;;;;33.55;22.38;;;7.50;99.90;;;;;;5112781;27;20035;-85
2021/11/11 08:12:46;;;;;;;32.20;21.38;;;7.60;99.90;;;;;;5112279;28;20036;-85
2021/11/11 08:15:13;;;;;;;32.35;20.30;;;7.60;99.90;;;;;;5095512;28;20409;-86
2021/11/11 08:17:39;;;;;;;27.35;18.45;;;7.60;99.90;;;;;;5112201;28;20038;-85
2021/11/11 08:20:07;;;;;;;29.95;19.42;;;7.60;99.90;;;;;;5112224;28;20471;-85
2021/11/11 08:22:35;;;;;;;30.00;19.67;;;7.70;99.90;;;;;;5095344;28;20036;-86
2021/11/11 08:25:01;;;;;;;29.00;19.40;;;7.70;99.90;;;;;;5095697;28;20031;-85
2021/11/11 08:27:27;;;;;;;36.63;20.80;;;7.70;99.90;;;;;;5095882;28;20081;-85
2021/11/11 08:29:54;;;;;;;32.78;20.88;;;7.70;99.90;;;;;;5112168;28;20020;-85
2021/11/11 08:32:21;;;;;;;29.15;18.52;;;7.70;99.90;;;;;;5113427;28;20024;-85
2021/11/11 08:34:50;;;;;;;31.88;19.33;;;7.70;99.90;;;;;;5111673;28;20144;-85
2021/11/11 08:37:18;;;;;;;36.78;22.67;;;7.70;99.90;;;;;;5113615;28;20028;-85
2021/11/11 08:39:44;;;;;;;38.08;22.92;;;7.80;99.90;;;;;;5112203;28;20027;-85
2021/11/11 08:42:15;;;;;;;36.40;22.00;;;7.80;99.90;;;;;;5115775;28;20020;-85
2021/11/11 08:44:42;;;;;;;34.65;21.67;;;7.80;99.90;;;;;;5118471;28;20058;-85
2021/11/11 08:47:14;;;;;;;34.25;22.15;;;7.90;99.90;;;;;;5116432;28;20110;-85
2021/11/11 08:49:41;;;;;;;34.80;23.08;;;7.80;99.90;;;;;;5099373;28;20436;-85
2021/11/11 08:52:10;;;;;;;38.78;23.40;;;7.80;99.90;;;;;;5099214;28;20386;-85
2021/11/11 08:54:38;;;;;;;36.92;23.27;;;7.90;99.90;;;;;;5099445;28;20127;-86
2021/11/11 08:57:04;;;;;;;38.60;23.65;;;7.90;99.90;;;;;;5115642;28;20035;-85
2021/11/11 08:59:34;;;;;;;35.25;22.98;;;7.80;99.90;;;;;;5116031;28;20031;-85
2021/11/11 09:02:00;;;;;;;33.40;20.23;;;7.90;99.90;;;;;;5115718;28;20128;-86
2021/11/11 09:04:26;;;;;;;32.95;22.33;;;7.90;99.90;;;;;;5115772;28;20067;-85
2021/11/11 09:06:51;;;;;;;35.58;22.92;;;8.00;99.90;;;;;;5115794;28;20024;-84
2021/11/11 09:09:19;;;;;;;36.58;23.80;;;8.00;99.90;;;;;;5116985;28;20459;-85
2021/11/11 09:11:45;;;;;;;41.55;25.13;;;8.00;99.90;;;;;;5115438;28;20035;-85
2021/11/11 09:14:12;;;;;;;38.95;23.73;;;8.00;99.90;;;;;;5115577;28;20096;-85
2021/11/11 09:16:40;;;;;;;38.25;24.45;;;8.00;99.90;;;;;;5098721;28;20360;-85
2021/11/11 09:19:07;;;;;;;37.40;22.88;;;8.10;99.90;;;;;;5115744;28;20057;-85
2021/11/11 09:21:34;;;;;;;40.13;22.83;;;8.00;99.90;;;;;;5114938;28;20581;-85
2021/11/11 09:24:00;;;;;;;36.88;22.35;;;8.10;99.90;;;;;;5115405;28;20030;-85
2021/11/11 09:26:28;;;;;;;38.42;21.73;;;8.10;99.90;;;;;;5115561;28;20039;-84
2021/11/11 09:28:55;;;;;;;36.28;20.73;;;8.20;99.90;;;;;;5098036;28;20028;-84
2021/11/11 09:31:23;;;;;;;37.00;21.77;;;8.20;99.90;;;;;;5098398;28;20036;-84
2021/11/11 09:33:49;;;;;;;33.42;21.20;;;8.20;99.90;;;;;;5114924;28;20371;-83
2021/11/11 09:36:18;;;;;;;37.38;22.73;;;8.20;99.90;;;;;;5115104;28;20018;-85
2021/11/11 09:38:45;;;;;;;43.85;24.17;;;8.30;99.90;;;;;;5098070;28;20510;-85
2021/11/11 09:41:16;;;;;;;39.78;24.33;;;8.30;99.90;;;;;;5115123;28;20071;-85
2021/11/11 09:43:42;;;;;;;36.15;22.73;;;8.30;99.90;;;;;;5114221;28;20051;-84
2021/11/11 09:46:11;;;;;;;35.45;21.30;;;8.40;99.90;;;;;;5115027;28;20387;-85
2021/11/11 09:48:38;;;;;;;31.25;20.42;;;8.40;99.90;;;;;;5115042;28;20028;-85
2021/11/11 09:51:09;;;;;;;33.17;22.30;;;8.50;99.90;;;;;;5097780;28;20034;-85
2021/11/11 09:53:43;;;;;;;34.95;22.80;;;8.60;99.90;;;;;;5113495;28;20028;-85
2021/11/11 09:58:53;;;;;;;34.15;22.38;;;8.60;99.90;;;;;;5116205;28;20035;-85
2021/11/11 10:01:28;;;;;;;28.42;20.35;;;8.60;99.90;;;;;;5114811;28;20394;-85
2021/11/11 10:03:55;;;;;;;36.33;22.60;;;8.70;99.90;;;;;;5098497;28;20045;-85
2021/11/11 10:06:25;;;;;;;35.83;20.73;;;8.70;99.90;;;;;;5114621;28;20083;-85
2021/11/11 10:09:00;;;;;;;31.42;19.92;;;8.80;99.90;;;;;;5114532;28;20050;-85
2021/11/11 10:11:33;;;;;;;33.22;21.77;;;8.90;99.90;;;;;;5114516;28;20023;-85
2021/11/11 10:14:08;;;;;;;33.28;20.58;;;9.00;99.90;;;;;;5115481;27;20474;-85
2021/11/11 10:16:46;;;;;;;33.05;22.50;;;9.00;99.90;;;;;;5097795;28;20024;-85
2021/11/11 10:19:12;;;;;;;36.72;23.20;;;9.00;99.90;;;;;;5114416;28;20024;-85
2021/11/11 10:21:49;;;;;;;33.38;21.63;;;9.00;99.90;;;;;;5097159;28;20097;-85
2021/11/11 10:24:28;;;;;;;29.60;20.40;;;9.00;99.90;;;;;;5115266;27;20020;-84
2021/11/11 10:26:56;;;;;;;39.58;23.25;;;9.00;99.90;;;;;;5114353;28;20155;-85
2021/11/11 10:29:48;;;;;;;35.85;21.98;;;9.00;99.90;;;;;;5114317;28;20028;-85
2021/11/11 10:32:32;;;;;;;32.30;21.02;;;9.00;99.90;;;;;;5114475;27;20020;-85
2021/11/11 10:35:13;;;;;;;35.47;22.30;;;9.10;99.90;;;;;;5114016;28;20040;-85
2021/11/11 10:37:42;;;;;;;35.65;22.65;;;9.20;99.90;;;;;;5113996;28;20016;-84
2021/11/11 10:40:13;;;;;;;41.08;25.90;;;9.20;99.90;;;;;;5096897;28;20375;-85
2021/11/11 10:42:42;;;;;;;39.20;25.60;;;9.30;99.90;;;;;;5113879;28;20024;-85
2021/11/11 10:45:12;;;;;;;34.55;24.92;;;9.20;99.90;;;;;;5115214;28;20054;-85
2021/11/11 10:47:42;;;;;;;39.08;24.42;;;9.30;99.90;;;;;;5113925;28;20020;-85
2021/11/11 10:50:14;;;;;;;40.67;24.92;;;9.30;99.90;;;;;;5113194;28;20470;-85
2021/11/11 10:52:44;;;;;;;37.95;24.13;;;9.40;99.90;;;;;;5113442;28;20472;-85
2021/11/11 10:55:28;;;;;;;34.55;20.95;;;9.50;99.90;;;;;;5115042;28;20437;-84
2021/11/11 10:58:04;;;;;;;31.30;20.52;;;9.60;99.90;;;;;;5098243;28;20126;-84
2021/11/11 11:00:44;;;;;;;32.05;20.33;;;9.70;99.90;;;;;;5113738;28;20027;-84
2021/11/11 11:03:17;;;;;;;30.92;20.52;;;9.70;99.90;;;;;;5114098;28;20028;-84
2021/11/11 11:06:03;;;;;;;29.83;19.88;;;9.80;99.90;;;;;;5114776;28;20653;-84
2021/11/11 11:08:38;;;;;;;28.70;19.13;;;9.80;99.90;;;;;;5114250;28;20485;-85
2021/11/11 11:11:12;;;;;;;31.02;19.60;;;9.80;99.90;;;;;;5113655;28;20031;-84
2021/11/11 11:13:42;;;;;;;30.15;19.60;;;9.80;99.90;;;;;;5113230;28;20159;-85
2021/11/11 11:16:13;;;;;;;35.20;21.52;;;9.80;99.90;;;;;;5096767;28;20028;-84
2021/11/11 11:18:45;;;;;;;32.78;20.15;;;9.90;99.90;;;;;;5115365;28;20031;-85
2021/11/11 11:21:15;;;;;;;36.83;19.50;;;9.80;99.90;;;;;;5112826;28;20039;-84
2021/11/11 11:23:55;;;;;;;35.65;21.92;;;9.80;99.90;;;;;;5113190;28;20062;-85
2021/11/11 11:26:23;;;;;;;33.60;21.63;;;9.80;99.90;;;;;;5113655;28;20020;-85
2021/11/11 11:29:11;;;;;;;30.40;20.55;;;9.80;99.90;;;;;;5113026;28;20522;-85
2021/11/11 11:32:07;;;;;;;35.47;21.60;;;9.80;99.90;;;;;;5112948;28;20051;-84
2021/11/11 11:34:55;;;;;;;33.20;20.73;;;9.80;99.90;;;;;;5113426;28;20375;-84
2021/11/11 11:37:31;;;;;;;28.50;19.23;;;9.80;99.90;;;;;;5112754;28;20123;-84
2021/11/11 11:40:06;;;;;;;37.05;22.92;;;9.80;99.90;;;;;;5096543;28;20038;-85
2021/11/11 11:42:54;;;;;;;34.08;21.65;;;9.70;99.90;;;;;;5112394;28;20020;-84
2021/11/11 11:45:23;;;;;;;36.28;22.27;;;9.70;99.90;;;;;;5094626;28;20154;-84
2021/11/11 11:47:57;;;;;;;31.05;21.45;;;9.70;99.90;;;;;;5112145;28;20046;-84
2021/11/11 11:50:48;;;;;;;30.42;21.27;;;9.70;99.90;;;;;;5094727;28;20023;-84
2021/11/11 11:53:16;;;;;;;32.28;21.20;;;9.70;99.90;;;;;;5111962;28;20036;-84
2021/11/11 11:55:47;;;;;;;34.38;23.00;;;9.70;99.90;;;;;;5115260;27;20016;-83
2021/11/11 11:58:28;;;;;;;35.60;23.80;;;9.70;99.90;;;;;;5109594;27;20028;-84
2021/11/11 12:07:06;;;;;;;32.97;21.80;;;9.80;99.90;;;;;;5097411;28;20490;-83
2021/11/11 12:12:46;;;;;;;30.17;19.58;;;9.90;99.90;;;;;;5110777;28;20032;-84
2021/11/11 12:15:33;;;;;;;34.72;23.13;;;9.90;99.90;;;;;;5108633;28;20035;-83
2021/11/11 12:30:02;;;;;;;36.22;23.50;;;10.00;99.90;;;;;;5031115;28;20067;-87
2021/11/11 12:38:45;;;;;;;32.60;21.27;;;10.10;99.90;;;;;;5113447;28;20086;-85
2021/11/11 12:41:18;;;;;;;32.63;22.40;;;10.20;99.90;;;;;;5112776;28;20027;-85
2021/11/11 12:44:06;;;;;;;31.88;22.00;;;10.20;99.90;;;;;;5116562;28;20102;-86
2021/11/11 12:46:42;;;;;;;29.48;21.13;;;10.20;99.90;;;;;;5110861;28;20114;-85
2021/11/11 12:49:26;;;;;;;32.22;21.88;;;10.20;99.90;;;;;;5111486;28;20045;-86
2021/11/11 12:52:14;;;;;;;31.33;21.27;;;10.20;99.90;;;;;;5110540;28;20035;-85
2021/11/11 12:54:41;;;;;;;31.30;22.65;;;10.20;99.90;;;;;;5110500;28;20024;-86
2021/11/11 12:57:08;;;;;;;29.38;21.65;;;10.20;99.90;;;;;;5111754;28;20161;-85
2021/11/11 12:59:36;;;;;;;29.80;21.63;;;10.20;99.90;;;;;;5112880;28;20468;-85
2021/11/11 13:02:06;;;;;;;29.63;20.15;;;10.30;99.90;;;;;;5112305;28;20470;-85
2021/11/11 13:04:52;;;;;;;30.27;20.90;;;10.30;99.90;;;;;;5112894;28;20031;-84
2021/11/11 13:07:26;;;;;;;26.50;20.58;;;10.40;99.90;;;;;;5113370;28;20056;-86
2021/11/11 13:10:16;;;;;;;25.25;18.88;;;10.40;99.90;;;;;;5111645;28;20451;-86
2021/11/11 13:12:43;;;;;;;24.08;18.23;;;10.50;99.90;;;;;;5113165;28;20016;-85
2021/11/11 13:15:14;;;;;;;32.80;21.88;;;10.50;99.90;;;;;;5113952;28;20016;-84
2021/11/11 13:17:45;;;;;;;33.55;23.52;;;10.50;99.90;;;;;;5112684;28;20102;-84
2021/11/11 13:20:21;;;;;;;31.70;22.98;;;10.50;99.90;;;;;;5113834;28;20027;-85
2021/11/11 13:25:57;;;;;;;32.13;21.23;;;10.50;99.90;;;;;;5114361;28;20126;-85
2021/11/11 15:46:56;;;;;;;26.65;18.08;;;10.40;99.90;;;;;;5108685;28;20464;-85
2021/11/11 16:24:34;;;;;;;36.03;23.98;;;10.20;99.90;;;;;;5100791;28;20537;-85
2021/11/11 16:27:02;;;;;;;37.97;23.88;;;10.20;99.90;;;;;;5099103;28;20051;-86
2021/11/11 16:29:31;;;;;;;35.92;25.02;;;10.20;99.90;;;;;;5105597;28;20024;-85
2021/11/11 16:32:02;;;;;;;36.50;26.20;;;10.20;99.90;;;;;;5087060;28;20024;-85
2021/11/11 16:34:35;;;;;;;35.50;25.35;;;10.20;99.90;;;;;;5104609;28;20471;-85
2021/11/11 16:37:07;;;;;;;38.13;26.38;;;10.20;99.90;;;;;;5105656;28;20036;-85
2021/11/11 16:39:36;;;;;;;40.63;26.35;;;10.20;99.90;;;;;;5090473;28;20044;-85
2021/11/11 16:42:03;;;;;;;41.47;28.05;;;10.20;99.90;;;;;;5091090;28;20474;-85